createdAt,value
2019-01-28T00:00:09.168Z,0.00
2019-01-28T00:01:09.151Z,0.00
2019-01-28T00:02:09.140Z,0.00
2019-01-28T00:03:09.155Z,0.00
2019-01-28T00:04:09.118Z,0.00
2019-01-28T00:05:09.133Z,0.00
2019-01-28T00:06:09.110Z,0.00
2019-01-28T00:07:09.091Z,0.00
2019-01-28T00:08:09.096Z,0.00
2019-01-28T00:09:09.066Z,0.00
2019-01-28T00:10:09.051Z,0.00
2019-01-28T00:11:09.042Z,0.00
2019-01-28T00:12:09.060Z,0.00
2019-01-28T00:13:09.018Z,0.00
2019-01-28T00:14:09.006Z,0.00
2019-01-28T00:15:09.000Z,0.00
2019-01-28T00:16:08.986Z,0.00
2019-01-28T00:17:08.999Z,0.00
2019-01-28T00:18:08.963Z,0.00
2019-01-28T00:19:08.950Z,0.00
2019-01-28T00:20:08.950Z,0.00
2019-01-28T00:21:08.932Z,0.00
2019-01-28T00:22:08.944Z,0.00
2019-01-28T00:23:08.910Z,0.00
2019-01-28T00:24:08.898Z,0.00
2019-01-28T00:25:08.897Z,0.00
2019-01-28T00:26:08.873Z,0.00
2019-01-28T00:27:08.895Z,0.00
2019-01-28T00:28:08.852Z,0.00
2019-01-28T00:29:08.841Z,0.00
2019-01-28T00:30:08.838Z,0.00
2019-01-28T00:31:08.820Z,0.00
2019-01-28T00:32:08.826Z,0.00
2019-01-28T00:33:08.822Z,0.00
2019-01-28T00:34:08.783Z,0.00
2019-01-28T00:35:08.779Z,0.00
2019-01-28T00:36:08.764Z,0.00
2019-01-28T00:37:08.775Z,0.00
2019-01-28T00:38:08.763Z,0.00
2019-01-28T00:39:08.731Z,0.00
2019-01-28T00:40:08.718Z,0.00
2019-01-28T00:41:08.708Z,0.00
2019-01-28T00:42:08.727Z,0.00
2019-01-28T00:43:08.691Z,0.00
2019-01-28T00:44:08.697Z,0.00
2019-01-28T00:45:08.664Z,0.00
2019-01-28T00:46:08.651Z,0.00
2019-01-28T00:47:08.657Z,0.00
2019-01-28T00:48:08.633Z,0.00
2019-01-28T00:49:08.625Z,0.00
2019-01-28T00:50:08.608Z,0.00
2019-01-28T00:51:08.600Z,0.00
2019-01-28T00:52:08.612Z,0.00
2019-01-28T00:53:08.576Z,0.00
2019-01-28T00:54:08.566Z,0.00
2019-01-28T00:55:08.560Z,0.00
2019-01-28T00:56:08.541Z,0.00
2019-01-28T00:57:08.552Z,0.00
2019-01-28T00:58:08.522Z,0.00
2019-01-28T00:59:08.506Z,0.00
2019-01-28T01:00:08.496Z,0.00
2019-01-28T01:01:08.488Z,0.00
2019-01-28T01:02:08.507Z,0.00
2019-01-28T01:03:08.470Z,0.00
2019-01-28T01:04:08.455Z,0.00
2019-01-28T01:05:08.441Z,0.00
2019-01-28T01:06:08.429Z,0.00
2019-01-28T01:07:08.442Z,0.00
2019-01-28T01:08:08.407Z,0.00
2019-01-28T01:09:08.425Z,0.00
2019-01-28T01:10:08.386Z,0.00
2019-01-28T01:11:08.376Z,0.00
2019-01-28T01:12:08.363Z,0.00
2019-01-28T01:13:08.356Z,0.00
2019-01-28T01:14:08.365Z,0.00
2019-01-28T01:15:08.347Z,0.00
2019-01-28T01:16:08.347Z,0.00
2019-01-28T01:17:08.308Z,0.00
2019-01-28T01:18:08.304Z,0.00
2019-01-28T01:19:08.331Z,0.00
2019-01-28T01:20:08.277Z,0.00
2019-01-28T01:21:08.263Z,0.00
2019-01-28T01:22:08.262Z,0.00
2019-01-28T01:23:08.246Z,0.00
2019-01-28T01:24:08.256Z,0.00
2019-01-28T01:25:08.221Z,0.00
2019-01-28T01:26:08.211Z,0.00
2019-01-28T01:27:08.200Z,0.00
2019-01-28T01:28:08.189Z,0.00
2019-01-28T01:29:08.209Z,0.00
2019-01-28T01:30:08.162Z,0.00
2019-01-28T01:31:08.151Z,0.00
2019-01-28T01:32:08.141Z,0.00
2019-01-28T01:33:08.134Z,0.00
2019-01-28T01:34:08.143Z,0.00
2019-01-28T01:35:08.108Z,0.00
2019-01-28T01:36:08.142Z,0.00
2019-01-28T01:37:08.115Z,0.00
2019-01-28T01:38:08.074Z,0.00
2019-01-28T01:39:08.064Z,0.00
2019-01-28T01:40:08.052Z,0.00
2019-01-28T01:41:08.070Z,0.00
2019-01-28T01:42:08.033Z,0.00
2019-01-28T01:43:08.022Z,0.00
2019-01-28T01:44:08.018Z,0.00
2019-01-28T01:45:08.018Z,0.00
2019-01-28T01:46:07.995Z,0.00
2019-01-28T01:47:07.976Z,0.00
2019-01-28T01:48:07.967Z,0.00
2019-01-28T01:49:07.970Z,0.00
2019-01-28T01:50:07.951Z,0.00
2019-01-28T01:51:07.937Z,0.00
2019-01-28T01:52:07.922Z,0.00
2019-01-28T01:53:07.935Z,0.00
2019-01-28T01:54:07.897Z,0.00
2019-01-28T01:55:07.888Z,0.00
2019-01-28T01:56:07.883Z,0.00
2019-01-28T01:57:07.865Z,0.00
2019-01-28T01:58:07.894Z,0.00
2019-01-28T01:59:07.840Z,0.00
2019-01-28T02:00:07.831Z,0.00
2019-01-28T02:01:07.827Z,0.00
2019-01-28T02:02:07.820Z,0.00
2019-01-28T02:03:07.821Z,0.00
2019-01-28T02:04:07.803Z,0.00
2019-01-28T02:05:07.783Z,0.00
2019-01-28T02:06:07.770Z,0.00
2019-01-28T02:07:07.887Z,0.00
2019-01-28T02:08:07.764Z,0.00
2019-01-28T02:09:07.730Z,0.00
2019-01-28T02:10:07.734Z,0.00
2019-01-28T02:11:07.711Z,0.00
2019-01-28T02:12:07.698Z,0.00
2019-01-28T02:13:07.726Z,0.00
2019-01-28T02:14:07.676Z,0.00
2019-01-28T02:15:07.669Z,0.00
2019-01-28T02:16:07.679Z,0.00
2019-01-28T02:17:07.641Z,0.00
2019-01-28T02:18:07.650Z,0.00
2019-01-28T02:19:07.620Z,0.00
2019-01-28T02:20:07.611Z,0.00
2019-01-28T02:21:07.619Z,0.00
2019-01-28T02:22:07.613Z,0.00
2019-01-28T02:23:07.575Z,0.00
2019-01-28T02:24:07.573Z,0.00
2019-01-28T02:25:07.554Z,0.00
2019-01-28T02:26:07.573Z,0.00
2019-01-28T02:27:07.531Z,0.00
2019-01-28T02:28:07.519Z,0.00
2019-01-28T02:29:07.509Z,0.00
2019-01-28T02:30:07.510Z,0.00
2019-01-28T02:31:07.517Z,0.00
2019-01-28T02:32:07.475Z,0.00
2019-01-28T02:33:07.466Z,0.00
2019-01-28T02:34:07.454Z,0.00
2019-01-28T02:35:07.465Z,0.00
2019-01-28T02:36:07.445Z,0.00
2019-01-28T02:37:07.424Z,0.00
2019-01-28T02:38:07.412Z,0.00
2019-01-28T02:39:07.414Z,0.00
2019-01-28T02:40:07.393Z,0.00
2019-01-28T02:41:07.400Z,0.00
2019-01-28T02:42:07.370Z,0.00
2019-01-28T02:43:07.358Z,0.00
2019-01-28T02:44:07.348Z,0.00
2019-01-28T02:45:07.331Z,0.00
2019-01-28T02:46:07.361Z,0.00
2019-01-28T02:47:07.311Z,0.00
2019-01-28T02:48:07.298Z,0.00
2019-01-28T02:49:07.287Z,0.00
2019-01-28T02:50:07.276Z,0.00
2019-01-28T02:51:07.307Z,0.00
2019-01-28T02:52:07.254Z,0.00
2019-01-28T02:53:07.243Z,0.00
2019-01-28T02:54:07.233Z,0.00
2019-01-28T02:55:07.226Z,0.00
2019-01-28T02:56:07.233Z,0.00
2019-01-28T02:57:07.203Z,0.00
2019-01-28T02:58:07.188Z,0.00
2019-01-28T02:59:07.201Z,0.00
2019-01-28T03:00:07.164Z,0.00
2019-01-28T03:01:07.177Z,0.00
2019-01-28T03:02:07.147Z,0.00
2019-01-28T03:03:07.165Z,0.00
2019-01-28T03:04:07.121Z,0.00
2019-01-28T03:05:07.125Z,0.00
2019-01-28T03:06:07.099Z,0.00
2019-01-28T03:07:07.087Z,0.00
2019-01-28T03:08:07.076Z,0.00
2019-01-28T03:09:07.096Z,0.00
2019-01-28T03:10:07.054Z,0.00
2019-01-28T03:11:07.042Z,0.00
2019-01-28T03:12:07.043Z,0.00
2019-01-28T03:13:07.024Z,0.00
2019-01-28T03:14:07.032Z,0.00
2019-01-28T03:15:07.008Z,0.00
2019-01-28T03:16:06.987Z,0.00
2019-01-28T03:17:06.981Z,0.00
2019-01-28T03:18:07.006Z,0.00
2019-01-28T03:19:06.979Z,0.00
2019-01-28T03:20:06.943Z,0.00
2019-01-28T03:21:06.945Z,0.00
2019-01-28T03:22:06.937Z,0.00
2019-01-28T03:23:06.921Z,0.00
2019-01-28T03:24:06.923Z,0.00
2019-01-28T03:25:06.931Z,0.00
2019-01-28T03:26:06.880Z,0.00
2019-01-28T03:27:06.893Z,0.00
2019-01-28T03:28:06.859Z,0.00
2019-01-28T03:29:07.269Z,0.00
2019-01-28T03:30:06.834Z,0.00
2019-01-28T03:31:06.878Z,0.00
2019-01-28T03:32:06.812Z,0.00
2019-01-28T03:33:06.825Z,0.00
2019-01-28T03:34:06.825Z,0.00
2019-01-28T03:35:06.778Z,0.00
2019-01-28T03:36:06.791Z,0.00
2019-01-28T03:37:06.766Z,0.00
2019-01-28T03:38:06.745Z,0.00
2019-01-28T03:39:06.737Z,0.00
2019-01-28T03:40:06.727Z,0.00
2019-01-28T03:41:06.735Z,0.00
2019-01-28T03:42:06.701Z,0.00
2019-01-28T03:43:06.697Z,0.00
2019-01-28T03:44:06.678Z,0.00
2019-01-28T03:45:06.681Z,0.00
2019-01-28T03:46:06.688Z,0.00
2019-01-28T03:47:06.648Z,0.00
2019-01-28T03:48:06.634Z,0.00
2019-01-28T03:49:06.623Z,0.00
2019-01-28T03:50:06.616Z,0.00
2019-01-28T03:51:06.630Z,0.00
2019-01-28T03:52:06.588Z,0.00
2019-01-28T03:53:06.582Z,0.00
2019-01-28T03:54:06.569Z,0.00
2019-01-28T03:55:06.556Z,0.00
2019-01-28T03:56:06.568Z,0.00
2019-01-28T03:57:06.557Z,0.00
2019-01-28T03:58:06.537Z,0.00
2019-01-28T03:59:06.511Z,0.00
2019-01-28T04:00:06.501Z,0.00
2019-01-28T04:01:06.492Z,0.00
2019-01-28T04:02:06.483Z,0.00
2019-01-28T04:03:06.509Z,0.00
2019-01-28T04:04:06.456Z,0.00
2019-01-28T04:05:06.444Z,0.00
2019-01-28T04:06:06.434Z,0.00
2019-01-28T04:07:06.438Z,0.00
2019-01-28T04:08:06.417Z,0.00
2019-01-28T04:09:06.427Z,0.00
2019-01-28T04:10:06.405Z,0.00
2019-01-28T04:11:06.378Z,0.00
2019-01-28T04:12:06.366Z,0.00
2019-01-28T04:13:06.356Z,0.00
2019-01-28T04:14:06.346Z,0.00
2019-01-28T04:15:06.390Z,0.00
2019-01-28T04:16:06.324Z,0.00
2019-01-28T04:17:06.339Z,0.00
2019-01-28T04:18:06.300Z,0.00
2019-01-28T04:19:06.320Z,0.00
2019-01-28T04:20:06.287Z,0.00
2019-01-28T04:21:06.273Z,0.00
2019-01-28T04:22:06.267Z,0.00
2019-01-28T04:23:06.247Z,0.00
2019-01-28T04:24:06.259Z,0.00
2019-01-28T04:25:06.225Z,0.00
2019-01-28T04:26:06.214Z,0.00
2019-01-28T04:27:06.213Z,0.00
2019-01-28T04:28:06.212Z,0.00
2019-01-28T04:29:06.178Z,0.00
2019-01-28T04:30:06.168Z,0.00
2019-01-28T04:31:06.156Z,0.00
2019-01-28T04:32:06.163Z,0.00
2019-01-28T04:33:06.152Z,0.00
2019-01-28T04:34:06.126Z,0.00
2019-01-28T04:35:06.113Z,0.00
2019-01-28T04:36:06.128Z,0.00
2019-01-28T04:37:06.115Z,0.00
2019-01-28T04:38:06.081Z,0.00
2019-01-28T04:39:06.075Z,0.00
2019-01-28T04:40:06.057Z,0.00
2019-01-28T04:41:06.048Z,0.00
2019-01-28T04:42:06.061Z,0.00
2019-01-28T04:43:06.042Z,0.00
2019-01-28T04:44:06.013Z,0.00
2019-01-28T04:45:06.035Z,0.00
2019-01-28T04:46:05.991Z,0.00
2019-01-28T04:47:05.983Z,0.00
2019-01-28T04:48:05.969Z,0.00
2019-01-28T04:49:05.957Z,0.00
2019-01-28T04:50:05.971Z,0.00
2019-01-28T04:51:05.944Z,0.00
2019-01-28T04:52:05.925Z,0.00
2019-01-28T04:53:05.938Z,0.00
2019-01-28T04:54:05.915Z,0.00
2019-01-28T04:55:05.891Z,0.00
2019-01-28T04:56:05.881Z,0.00
2019-01-28T04:57:05.887Z,0.00
2019-01-28T04:58:05.874Z,0.00
2019-01-28T04:59:05.847Z,0.00
2019-01-28T05:00:05.841Z,0.00
2019-01-28T05:01:05.827Z,0.00
2019-01-28T05:02:05.838Z,0.00
2019-01-28T05:03:05.840Z,0.00
2019-01-28T05:04:05.791Z,0.00
2019-01-28T05:05:05.780Z,0.00
2019-01-28T05:06:05.770Z,0.00
2019-01-28T05:07:05.760Z,0.00
2019-01-28T05:08:05.769Z,0.00
2019-01-28T05:09:05.762Z,0.00
2019-01-28T05:10:05.724Z,0.00
2019-01-28T05:11:05.718Z,0.00
2019-01-28T05:12:05.703Z,0.00
2019-01-28T05:13:05.722Z,0.00
2019-01-28T05:14:05.683Z,0.00
2019-01-28T05:15:05.684Z,0.00
2019-01-28T05:16:05.658Z,0.00
2019-01-28T05:17:05.647Z,0.00
2019-01-28T05:18:05.655Z,0.00
2019-01-28T05:19:05.627Z,0.00
2019-01-28T05:20:05.614Z,0.00
2019-01-28T05:21:05.644Z,0.00
2019-01-28T05:22:05.592Z,0.00
2019-01-28T05:23:05.585Z,0.00
2019-01-28T05:24:05.569Z,0.00
2019-01-28T05:25:05.559Z,0.00
2019-01-28T05:26:05.564Z,0.00
2019-01-28T05:27:05.559Z,0.00
2019-01-28T05:28:05.526Z,0.00
2019-01-28T05:29:05.515Z,0.00
2019-01-28T05:30:05.507Z,0.00
2019-01-28T05:31:05.514Z,0.00
2019-01-28T05:32:05.482Z,0.00
2019-01-28T05:33:05.485Z,0.00
2019-01-28T05:34:05.458Z,0.00
2019-01-28T05:35:05.475Z,0.00
2019-01-28T05:36:05.440Z,0.00
2019-01-28T05:37:05.455Z,0.00
2019-01-28T05:38:05.414Z,0.00
2019-01-28T05:39:05.416Z,0.00
2019-01-28T05:40:05.417Z,0.00
2019-01-28T05:41:05.405Z,0.00
2019-01-28T05:42:05.370Z,0.00
2019-01-28T05:43:05.358Z,0.00
2019-01-28T05:44:05.349Z,0.00
2019-01-28T05:45:05.346Z,0.00
2019-01-28T05:46:05.353Z,0.00
2019-01-28T05:47:05.319Z,0.00
2019-01-28T05:48:05.344Z,0.00
2019-01-28T05:49:05.294Z,0.00
2019-01-28T05:50:05.280Z,0.00
2019-01-28T05:51:05.281Z,0.00
2019-01-28T05:52:05.260Z,0.00
2019-01-28T05:53:05.270Z,0.00
2019-01-28T05:54:05.238Z,0.00
2019-01-28T05:55:05.225Z,0.00
2019-01-28T05:56:05.214Z,0.00
2019-01-28T05:57:05.211Z,0.00
2019-01-28T05:58:05.219Z,0.00
2019-01-28T05:59:05.181Z,0.00
2019-01-28T06:00:05.212Z,0.00
2019-01-28T06:01:05.186Z,0.00
2019-01-28T06:02:05.171Z,0.00
2019-01-28T06:03:05.143Z,0.00
2019-01-28T06:04:05.128Z,0.00
2019-01-28T06:05:05.117Z,0.00
2019-01-28T06:06:05.130Z,0.00
2019-01-28T06:07:05.095Z,0.00
2019-01-28T06:08:05.483Z,0.00
2019-01-28T06:09:05.076Z,0.00
2019-01-28T06:10:05.087Z,0.00
2019-01-28T06:11:05.069Z,0.00
2019-01-28T06:12:05.041Z,0.00
2019-01-28T06:13:05.025Z,0.00
2019-01-28T06:14:05.027Z,0.00
2019-01-28T06:15:05.027Z,0.00
2019-01-28T06:16:05.025Z,0.00
2019-01-28T06:17:04.983Z,0.00
2019-01-28T06:18:05.046Z,0.00
2019-01-28T06:19:04.960Z,0.00
2019-01-28T06:20:04.949Z,0.00
2019-01-28T06:21:04.975Z,0.00
2019-01-28T06:22:04.927Z,0.00
2019-01-28T06:23:04.939Z,0.00
2019-01-28T06:24:04.905Z,0.00
2019-01-28T06:25:04.894Z,0.00
2019-01-28T06:26:05.123Z,0.00
2019-01-28T06:27:04.873Z,0.00
2019-01-28T06:28:04.883Z,0.00
2019-01-28T06:29:04.848Z,0.00
2019-01-28T06:30:04.848Z,0.00
2019-01-28T06:31:04.826Z,0.00
2019-01-28T06:32:04.829Z,0.00
2019-01-28T06:33:04.839Z,0.00
2019-01-28T06:34:04.793Z,0.00
2019-01-28T06:35:04.783Z,0.00
2019-01-28T06:36:04.773Z,0.00
2019-01-28T06:37:04.760Z,0.00
2019-01-28T06:38:04.775Z,0.00
2019-01-28T06:39:04.745Z,0.00
2019-01-28T06:40:04.752Z,0.00
2019-01-28T06:41:04.716Z,0.00
2019-01-28T06:42:04.710Z,0.00
2019-01-28T06:43:04.693Z,0.00
2019-01-28T06:44:04.683Z,0.00
2019-01-28T06:45:04.712Z,0.00
2019-01-28T06:46:04.661Z,0.00
2019-01-28T06:47:04.651Z,0.00
2019-01-28T06:48:04.641Z,0.00
2019-01-28T06:49:04.632Z,0.00
2019-01-28T06:50:04.642Z,0.00
2019-01-28T06:51:04.621Z,0.00
2019-01-28T06:52:04.594Z,0.00
2019-01-28T06:53:04.584Z,0.00
2019-01-28T06:54:04.571Z,0.00
2019-01-28T06:55:04.576Z,0.00
2019-01-28T06:56:04.573Z,0.00
2019-01-28T06:57:04.546Z,0.00
2019-01-28T06:58:04.527Z,0.00
2019-01-28T06:59:04.524Z,0.00
2019-01-28T07:00:04.507Z,0.00
2019-01-28T07:01:04.527Z,0.00
2019-01-28T07:02:04.483Z,0.00
2019-01-28T07:03:04.489Z,0.00
2019-01-28T07:04:04.467Z,0.00
2019-01-28T07:05:04.451Z,0.00
2019-01-28T07:06:04.460Z,0.00
2019-01-28T07:07:04.427Z,0.00
2019-01-28T07:08:04.438Z,0.00
2019-01-28T07:09:04.405Z,0.00
2019-01-28T07:10:04.409Z,0.00
2019-01-28T07:11:04.387Z,0.00
2019-01-28T07:12:04.372Z,0.00
2019-01-28T07:13:04.384Z,0.00
2019-01-28T07:14:04.357Z,5.62
2019-01-28T07:15:04.339Z,5.62
2019-01-28T07:16:04.330Z,5.62
2019-01-28T07:17:04.344Z,5.62
2019-01-28T07:18:04.310Z,5.62
2019-01-28T07:19:04.295Z,5.62
2019-01-28T07:20:04.289Z,5.62
2019-01-28T07:21:04.307Z,5.62
2019-01-28T07:22:04.262Z,5.62
2019-01-28T07:23:04.276Z,5.62
2019-01-28T07:24:04.262Z,5.62
2019-01-28T07:25:04.230Z,5.62
2019-01-28T07:26:04.224Z,11.25
2019-01-28T07:27:04.206Z,11.25
2019-01-28T07:28:04.194Z,11.25
2019-01-28T07:29:04.211Z,11.25
2019-01-28T07:30:04.174Z,11.25
2019-01-28T07:31:04.161Z,5.62
2019-01-28T07:32:04.187Z,5.62
2019-01-28T07:33:04.142Z,5.62
2019-01-28T07:34:04.130Z,5.62
2019-01-28T07:35:04.121Z,5.62
2019-01-28T07:36:04.106Z,5.62
2019-01-28T07:37:04.129Z,5.62
2019-01-28T07:38:04.084Z,5.62
2019-01-28T07:39:04.079Z,11.25
2019-01-28T07:40:04.087Z,11.25
2019-01-28T07:41:04.050Z,11.25
2019-01-28T07:42:04.041Z,11.25
2019-01-28T07:43:04.030Z,11.25
2019-01-28T07:44:04.023Z,11.25
2019-01-28T07:45:04.023Z,11.25
2019-01-28T07:46:04.002Z,11.25
2019-01-28T07:47:03.999Z,11.25
2019-01-28T07:48:03.972Z,11.25
2019-01-28T07:49:03.960Z,11.25
2019-01-28T07:50:03.950Z,11.25
2019-01-28T07:51:03.939Z,11.25
2019-01-28T07:52:03.959Z,11.25
2019-01-28T07:53:03.917Z,11.25
2019-01-28T07:54:03.914Z,11.25
2019-01-28T07:55:03.894Z,11.25
2019-01-28T07:56:03.906Z,16.88
2019-01-28T07:57:03.873Z,16.88
2019-01-28T07:58:03.878Z,16.88
2019-01-28T07:59:03.872Z,16.88
2019-01-28T08:00:03.839Z,16.88
2019-01-28T08:01:03.827Z,22.50
2019-01-28T08:02:03.817Z,16.88
2019-01-28T08:03:03.831Z,22.50
2019-01-28T08:04:03.974Z,22.50
2019-01-28T08:05:03.788Z,22.50
2019-01-28T08:06:03.796Z,22.50
2019-01-28T08:07:03.780Z,22.50
2019-01-28T08:08:03.776Z,28.12
2019-01-28T08:09:03.740Z,28.12
2019-01-28T08:10:03.737Z,28.12
2019-01-28T08:11:03.716Z,28.12
2019-01-28T08:12:03.733Z,28.12
2019-01-28T08:13:03.696Z,28.12
2019-01-28T08:14:03.684Z,28.12
2019-01-28T08:15:03.707Z,22.50
2019-01-28T08:16:03.692Z,22.50
2019-01-28T08:17:03.653Z,22.50
2019-01-28T08:18:10.693Z,22.50
2019-01-28T08:19:04.638Z,22.50
2019-01-28T08:20:11.059Z,16.88
2019-01-28T08:21:04.610Z,16.88
2019-01-28T08:22:03.601Z,16.88
2019-01-28T08:23:03.584Z,16.88
2019-01-28T08:24:03.573Z,16.88
2019-01-28T08:25:03.586Z,22.50
2019-01-28T08:26:03.551Z,22.50
2019-01-28T08:27:03.539Z,22.50
2019-01-28T08:28:03.567Z,22.50
2019-01-28T08:29:03.518Z,22.50
2019-01-28T08:30:03.508Z,22.50
2019-01-28T08:31:03.496Z,22.50
2019-01-28T08:32:03.509Z,22.50
2019-01-28T08:33:03.474Z,22.50
2019-01-28T08:34:03.470Z,28.12
2019-01-28T08:35:03.452Z,28.12
2019-01-28T08:36:03.440Z,28.12
2019-01-28T08:37:03.452Z,28.12
2019-01-28T08:38:03.423Z,28.12
2019-01-28T08:39:03.407Z,28.12
2019-01-28T08:40:03.430Z,28.12
2019-01-28T08:41:03.384Z,28.12
2019-01-28T08:42:03.400Z,28.12
2019-01-28T08:43:03.370Z,28.12
2019-01-28T08:44:03.352Z,28.12
2019-01-28T08:45:03.348Z,28.12
2019-01-28T08:46:03.339Z,28.12
2019-01-28T08:47:03.348Z,28.12
2019-01-28T08:48:03.309Z,28.12
2019-01-28T08:49:03.298Z,28.12
2019-01-28T08:50:03.286Z,28.12
2019-01-28T08:51:03.318Z,22.50
2019-01-28T08:52:03.265Z,22.50
2019-01-28T08:53:03.253Z,22.50
2019-01-28T08:54:03.250Z,22.50
2019-01-28T08:55:03.233Z,16.88
2019-01-28T08:56:03.242Z,16.88
2019-01-28T08:57:03.222Z,16.88
2019-01-28T08:58:03.197Z,16.88
2019-01-28T08:59:03.206Z,16.88
2019-01-28T09:00:03.178Z,22.50
2019-01-28T09:01:03.186Z,16.88
2019-01-28T09:02:04.083Z,16.88
2019-01-28T09:03:03.151Z,16.88
2019-01-28T09:04:03.131Z,16.88
2019-01-28T09:05:03.119Z,22.50
2019-01-28T09:06:03.123Z,22.50
2019-01-28T09:07:03.097Z,22.50
2019-01-28T09:08:03.102Z,22.50
2019-01-28T09:09:03.074Z,28.12
2019-01-28T09:10:03.073Z,28.12
2019-01-28T09:11:03.069Z,28.12
2019-01-28T09:12:03.041Z,28.12
2019-01-28T09:13:03.030Z,28.12
2019-01-28T09:14:03.063Z,33.75
2019-01-28T09:15:03.025Z,33.75
2019-01-28T09:16:02.999Z,33.75
2019-01-28T09:17:02.986Z,33.75
2019-01-28T09:18:02.980Z,39.38
2019-01-28T09:19:02.986Z,39.38
2019-01-28T09:20:02.961Z,45.00
2019-01-28T09:21:02.941Z,45.00
2019-01-28T09:22:02.932Z,45.00
2019-01-28T09:23:02.921Z,45.00
2019-01-28T09:24:02.934Z,45.00
2019-01-28T09:25:02.897Z,45.00
2019-01-28T09:26:02.897Z,45.00
2019-01-28T09:27:02.881Z,45.00
2019-01-28T09:28:02.867Z,45.00
2019-01-28T09:29:02.868Z,45.00
2019-01-28T09:30:02.844Z,45.00
2019-01-28T09:31:02.864Z,45.00
2019-01-28T09:32:02.831Z,45.00
2019-01-28T09:33:02.841Z,45.00
2019-01-28T09:34:02.799Z,45.00
2019-01-28T09:35:02.788Z,45.00
2019-01-28T09:36:02.776Z,45.00
2019-01-28T09:37:02.764Z,45.00
2019-01-28T09:38:02.775Z,45.00
2019-01-28T09:39:02.777Z,50.62
2019-01-28T09:40:02.731Z,56.25
2019-01-28T09:41:02.719Z,56.25
2019-01-28T09:42:02.709Z,61.88
2019-01-28T09:43:02.714Z,61.88
2019-01-28T09:44:02.720Z,61.88
2019-01-28T09:45:02.676Z,67.50
2019-01-28T09:46:02.719Z,67.50
2019-01-28T09:47:02.656Z,73.12
2019-01-28T09:48:02.643Z,67.50
2019-01-28T09:49:02.660Z,61.88
2019-01-28T09:50:02.627Z,61.88
2019-01-28T09:51:02.623Z,61.88
2019-01-28T09:52:02.603Z,61.88
2019-01-28T09:53:02.588Z,56.25
2019-01-28T09:54:02.574Z,50.62
2019-01-28T09:55:02.605Z,50.62
2019-01-28T09:56:02.580Z,50.62
2019-01-28T09:57:02.579Z,50.62
2019-01-28T09:58:02.559Z,56.25
2019-01-28T09:59:02.525Z,56.25
2019-01-28T10:00:02.511Z,50.62
2019-01-28T10:01:02.501Z,50.62
2019-01-28T10:02:02.538Z,50.62
2019-01-28T10:03:02.475Z,56.25
2019-01-28T10:04:02.463Z,56.25
2019-01-28T10:05:02.455Z,50.62
2019-01-28T10:06:02.466Z,50.62
2019-01-28T10:07:02.431Z,50.62
2019-01-28T10:08:02.428Z,50.62
2019-01-28T10:09:02.408Z,56.25
2019-01-28T10:10:02.397Z,56.25
2019-01-28T10:11:02.409Z,61.88
2019-01-28T10:12:02.374Z,67.50
2019-01-28T10:13:02.407Z,61.88
2019-01-28T10:14:02.360Z,61.88
2019-01-28T10:15:02.345Z,61.88
2019-01-28T10:16:02.330Z,61.88
2019-01-28T10:17:02.349Z,67.50
2019-01-28T10:18:02.310Z,67.50
2019-01-28T10:19:02.297Z,73.12
2019-01-28T10:20:02.293Z,84.38
2019-01-28T10:21:02.290Z,84.38
2019-01-28T10:22:02.265Z,90.00
2019-01-28T10:23:02.276Z,95.62
2019-01-28T10:24:02.241Z,106.88
2019-01-28T10:25:02.240Z,118.12
2019-01-28T10:26:02.223Z,123.75
2019-01-28T10:27:02.207Z,129.38
2019-01-28T10:28:02.213Z,135.00
2019-01-28T10:29:02.187Z,129.38
2019-01-28T10:30:02.174Z,135.00
2019-01-28T10:31:02.192Z,123.75
2019-01-28T10:32:02.199Z,118.12
2019-01-28T10:33:02.161Z,118.12
2019-01-28T10:34:02.130Z,123.75
2019-01-28T10:35:02.118Z,123.75
2019-01-28T10:36:02.107Z,118.12
2019-01-28T10:37:02.095Z,112.50
2019-01-28T10:38:02.121Z,101.25
2019-01-28T10:39:02.096Z,95.62
2019-01-28T10:40:02.062Z,101.25
2019-01-28T10:41:02.075Z,101.25
2019-01-28T10:42:02.041Z,90.00
2019-01-28T10:43:02.028Z,84.38
2019-01-28T10:44:09.933Z,73.12
2019-01-28T10:45:03.005Z,67.50
2019-01-28T10:46:02.000Z,61.88
2019-01-28T10:47:01.996Z,61.88
2019-01-28T10:48:01.995Z,61.88
2019-01-28T10:49:01.961Z,61.88
2019-01-28T10:50:01.965Z,67.50
2019-01-28T10:51:01.968Z,67.50
2019-01-28T10:52:01.927Z,67.50
2019-01-28T10:53:01.937Z,61.88
2019-01-28T10:54:01.904Z,61.88
2019-01-28T10:55:01.896Z,61.88
2019-01-28T10:56:01.906Z,56.25
2019-01-28T10:57:01.870Z,56.25
2019-01-28T10:58:01.863Z,50.62
2019-01-28T10:59:01.848Z,45.00
2019-01-28T11:00:01.845Z,45.00
2019-01-28T11:01:01.858Z,39.38
2019-01-28T11:02:01.815Z,39.38
2019-01-28T11:03:01.813Z,45.00
2019-01-28T11:04:01.793Z,39.38
2019-01-28T11:05:01.790Z,39.38
2019-01-28T11:06:01.801Z,39.38
2019-01-28T11:07:01.760Z,45.00
2019-01-28T11:08:01.771Z,45.00
2019-01-28T11:09:01.736Z,50.62
2019-01-28T11:10:01.750Z,45.00
2019-01-28T11:11:01.736Z,50.62
2019-01-28T11:12:01.758Z,50.62
2019-01-28T11:13:01.695Z,50.62
2019-01-28T11:14:01.832Z,56.25
2019-01-28T11:15:01.774Z,56.25
2019-01-28T11:16:01.780Z,50.62
2019-01-28T11:17:01.744Z,50.62
2019-01-28T11:18:01.765Z,45.00
2019-01-28T11:19:01.654Z,39.38
2019-01-28T11:20:01.707Z,39.38
2019-01-28T11:21:01.668Z,39.38
2019-01-28T11:22:01.623Z,39.38
2019-01-28T11:23:01.742Z,33.75
2019-01-28T11:24:01.667Z,39.38
2019-01-28T11:25:02.098Z,39.38
2019-01-28T11:26:01.585Z,45.00
2019-01-28T11:27:01.674Z,45.00
2019-01-28T11:28:01.683Z,50.62
2019-01-28T11:29:01.658Z,50.62
2019-01-28T11:30:01.664Z,50.62
2019-01-28T11:31:01.586Z,50.62
2019-01-28T11:32:01.605Z,50.62
2019-01-28T11:33:01.602Z,50.62
2019-01-28T11:34:01.579Z,50.62
2019-01-28T11:35:01.510Z,56.25
2019-01-28T11:36:05.388Z,56.25
2019-01-28T11:37:01.443Z,56.25
2019-01-28T11:38:01.578Z,56.25
2019-01-28T11:39:01.483Z,61.88
2019-01-28T11:40:01.402Z,67.50
2019-01-28T11:41:01.564Z,73.12
2019-01-28T11:42:01.373Z,78.75
2019-01-28T11:43:01.389Z,78.75
2019-01-28T11:44:01.455Z,78.75
2019-01-28T11:45:01.419Z,78.75
2019-01-28T11:46:01.392Z,78.75
2019-01-28T11:47:01.345Z,73.12
2019-01-28T11:48:01.407Z,73.12
2019-01-28T11:49:05.965Z,73.12
2019-01-28T11:50:02.413Z,73.12
2019-01-28T11:51:01.265Z,73.12
2019-01-28T11:52:01.278Z,73.12
2019-01-28T11:53:01.247Z,67.50
2019-01-28T11:54:01.275Z,67.50
2019-01-28T11:55:01.221Z,61.88
2019-01-28T11:56:01.526Z,61.88
2019-01-28T11:57:01.200Z,67.50
2019-01-28T11:58:01.187Z,73.12
2019-01-28T11:59:01.195Z,73.12
2019-01-28T12:00:01.172Z,73.12
2019-01-28T12:01:01.306Z,67.50
2019-01-28T12:02:01.142Z,61.88
2019-01-28T12:03:01.131Z,61.88
2019-01-28T12:04:01.131Z,67.50
2019-01-28T12:05:01.108Z,73.12
2019-01-28T12:06:01.116Z,78.75
2019-01-28T12:07:01.096Z,84.38
2019-01-28T12:08:01.078Z,90.00
2019-01-28T12:09:01.063Z,90.00
2019-01-28T12:10:01.228Z,90.00
2019-01-28T12:11:01.041Z,95.62
2019-01-28T12:12:01.060Z,95.62
2019-01-28T12:13:01.031Z,95.62
2019-01-28T12:14:01.063Z,95.62
2019-01-28T12:15:01.029Z,90.00
2019-01-28T12:16:00.990Z,84.38
2019-01-28T12:17:00.973Z,84.38
2019-01-28T12:18:00.972Z,84.38
2019-01-28T12:19:00.977Z,90.00
2019-01-28T12:20:00.963Z,90.00
2019-01-28T12:21:00.929Z,90.00
2019-01-28T12:22:00.923Z,90.00
2019-01-28T12:23:00.905Z,90.00
2019-01-28T12:24:00.929Z,90.00
2019-01-28T12:25:00.913Z,84.38
2019-01-28T12:26:00.897Z,78.75
2019-01-28T12:27:00.861Z,73.12
2019-01-28T12:28:00.853Z,73.12
2019-01-28T12:29:00.847Z,73.12
2019-01-28T12:30:00.831Z,67.50
2019-01-28T12:31:00.835Z,67.50
2019-01-28T12:32:00.807Z,61.88
2019-01-28T12:33:00.795Z,56.25
2019-01-28T12:34:00.792Z,56.25
2019-01-28T12:35:00.799Z,50.62
2019-01-28T12:36:00.831Z,50.62
2019-01-28T12:37:00.751Z,45.00
2019-01-28T12:38:00.740Z,45.00
2019-01-28T12:39:00.730Z,50.62
2019-01-28T12:40:00.715Z,45.00
2019-01-28T12:41:00.729Z,39.38
2019-01-28T12:42:00.707Z,39.38
2019-01-28T12:43:00.707Z,33.75
2019-01-28T12:44:00.675Z,39.38
2019-01-28T12:45:00.661Z,39.38
2019-01-28T12:46:00.648Z,33.75
2019-01-28T12:47:00.638Z,39.38
2019-01-28T12:48:00.663Z,39.38
2019-01-28T12:49:00.614Z,39.38
2019-01-28T12:50:00.603Z,39.38
2019-01-28T12:51:00.596Z,39.38
2019-01-28T12:52:00.618Z,39.38
2019-01-28T12:53:00.607Z,45.00
2019-01-28T12:54:00.605Z,45.00
2019-01-28T12:55:00.546Z,45.00
2019-01-28T12:56:00.537Z,39.38
2019-01-28T12:57:00.548Z,39.38
2019-01-28T12:58:00.515Z,39.38
2019-01-28T12:59:08.799Z,45.00
2019-01-28T13:00:01.515Z,45.00
2019-01-28T13:01:00.520Z,45.00
2019-01-28T13:02:00.478Z,39.38
2019-01-28T13:03:00.458Z,39.38
2019-01-28T13:04:00.446Z,39.38
2019-01-28T13:05:00.472Z,33.75
2019-01-28T13:06:00.423Z,39.38